createdAt,value
2018-08-11T00:03:31.514Z,2.50
2018-08-11T00:08:35.635Z,3.97
2018-08-11T00:13:39.653Z,5.20
2018-08-11T00:18:43.868Z,4.00
2018-08-11T00:23:48.696Z,3.50
2018-08-11T00:28:53.813Z,3.60
2018-08-11T00:33:57.723Z,3.40
2018-08-11T00:39:01.787Z,3.50
2018-08-11T00:44:06.893Z,6.70
2018-08-11T00:49:10.958Z,3.60
2018-08-11T00:54:16.467Z,6.20
2018-08-11T00:59:21.283Z,5.47
2018-08-11T01:04:25.974Z,4.60
2018-08-11T01:09:30.091Z,4.13
2018-08-11T01:14:34.567Z,4.10
2018-08-11T01:19:39.584Z,7.80
2018-08-11T01:24:44.111Z,5.07
2018-08-11T01:29:49.110Z,6.20
2018-08-11T01:34:52.902Z,5.97
2018-08-11T01:39:57.874Z,8.93
2018-08-11T01:45:01.715Z,11.97
2018-08-11T01:50:07.744Z,8.37
2018-08-11T01:55:15.571Z,6.93
2018-08-11T02:00:21.674Z,6.33
2018-08-11T02:05:26.808Z,6.17
2018-08-11T02:10:31.119Z,5.10
2018-08-11T02:15:36.894Z,7.27
2018-08-11T02:20:40.979Z,3.97
2018-08-11T02:25:47.394Z,4.90
2018-08-11T02:30:56.365Z,4.23
2018-08-11T02:36:00.483Z,6.57
2018-08-11T02:41:04.263Z,4.50
2018-08-11T02:46:08.707Z,6.57
2018-08-11T02:51:12.807Z,4.83
2018-08-11T02:56:16.692Z,6.70
2018-08-11T03:01:20.578Z,6.23
2018-08-11T03:06:25.057Z,5.50
2018-08-11T03:11:29.678Z,6.00
2018-08-11T03:16:34.325Z,6.77
2018-08-11T03:21:38.527Z,5.13
2018-08-11T03:26:43.332Z,5.97
2018-08-11T03:31:47.925Z,11.77
2018-08-11T03:36:53.737Z,6.70
2018-08-11T03:41:58.521Z,7.30
2018-08-11T03:47:03.305Z,8.90
2018-08-11T03:52:07.285Z,10.30
2018-08-11T03:57:11.704Z,12.10
2018-08-11T04:02:15.480Z,7.30
2018-08-11T04:07:19.656Z,8.58
2018-08-11T04:12:25.290Z,6.67
2018-08-11T04:17:42.147Z,7.93
2018-08-11T04:22:46.743Z,7.50
2018-08-11T04:27:50.894Z,9.13
2018-08-11T04:32:54.929Z,9.00
2018-08-11T04:37:58.837Z,6.90
2018-08-11T04:43:02.702Z,7.00
2018-08-11T04:48:08.244Z,10.03
2018-08-11T04:53:13.903Z,9.33
2018-08-11T04:58:18.608Z,8.40
2018-08-11T05:03:22.508Z,12.50
2018-08-11T05:08:26.197Z,8.98
2018-08-11T05:13:30.165Z,10.30
2018-08-11T05:18:34.634Z,12.80
2018-08-11T05:23:38.103Z,12.87
2018-08-11T05:28:43.122Z,8.83
2018-08-11T05:33:47.134Z,7.60
2018-08-11T05:38:52.638Z,12.57
2018-08-11T05:43:56.496Z,9.75
2018-08-11T05:49:01.010Z,12.05
2018-08-11T05:54:05.487Z,10.40
2018-08-11T05:59:09.402Z,13.20
2018-08-11T06:04:14.483Z,10.90
2018-08-11T06:09:19.241Z,11.15
2018-08-11T06:14:23.519Z,10.50
2018-08-11T06:19:27.675Z,8.90
2018-08-11T06:24:31.486Z,12.10
2018-08-11T06:29:37.370Z,9.97
2018-08-11T06:34:41.371Z,11.90
2018-08-11T06:39:45.247Z,9.13
2018-08-11T06:44:49.862Z,11.10
2018-08-11T06:49:55.424Z,9.43
2018-08-11T06:55:01.107Z,10.30
2018-08-11T07:00:06.384Z,11.43
2018-08-11T07:05:10.434Z,11.97
2018-08-11T07:10:15.357Z,11.53
2018-08-11T07:15:19.920Z,11.40
2018-08-11T07:20:23.960Z,9.73
2018-08-11T07:25:29.409Z,10.63
2018-08-11T07:30:35.582Z,10.65
2018-08-11T07:35:38.730Z,12.07
2018-08-11T07:40:41.896Z,11.93
2018-08-11T07:45:45.991Z,10.50
2018-08-11T07:50:50.220Z,13.50
2018-08-11T07:55:55.209Z,15.00
2018-08-11T08:00:59.975Z,12.07
2018-08-11T08:06:05.002Z,13.93
2018-08-11T08:11:09.350Z,14.37
2018-08-11T08:16:13.624Z,13.70
2018-08-11T08:21:19.481Z,11.10
2018-08-11T08:26:28.770Z,12.78
2018-08-11T08:31:33.348Z,12.80
2018-08-11T08:36:38.124Z,11.97
2018-08-11T08:41:43.009Z,11.90
2018-08-11T08:46:50.051Z,11.63
2018-08-11T08:51:59.348Z,7.40
2018-08-11T08:57:04.314Z,8.73
2018-08-11T09:02:07.430Z,6.90
2018-08-11T09:07:10.565Z,7.43
2018-08-11T09:12:13.725Z,6.47
2018-08-11T09:17:16.869Z,8.90
2018-08-11T09:22:20.029Z,14.53
2018-08-11T09:27:23.209Z,6.40
2018-08-11T09:32:26.376Z,6.80
2018-08-11T09:37:29.509Z,9.43
2018-08-11T09:42:32.670Z,5.43
2018-08-11T09:47:35.855Z,7.70
2018-08-11T09:52:38.980Z,6.97
2018-08-11T09:57:42.220Z,4.23
2018-08-11T10:02:45.351Z,5.27
2018-08-11T10:07:48.525Z,4.47
2018-08-11T10:12:51.666Z,6.83
2018-08-11T10:17:54.792Z,3.07
2018-08-11T10:22:57.937Z,2.67
2018-08-11T10:28:04.715Z,3.23
2018-08-11T10:33:17.065Z,2.30
2018-08-11T10:38:23.946Z,3.17
2018-08-11T10:43:28.100Z,1.70
2018-08-11T10:48:32.149Z,1.43
2018-08-11T10:53:36.059Z,3.10
2018-08-11T10:58:40.395Z,1.30
2018-08-11T11:03:51.492Z,0.70
2018-08-11T11:08:57.197Z,1.47
2018-08-11T11:14:04.794Z,1.10
2018-08-11T11:19:08.913Z,1.17
2018-08-11T11:24:13.814Z,3.08
2018-08-11T11:29:19.099Z,1.05
2018-08-11T11:34:24.314Z,1.47
2018-08-11T11:39:30.038Z,1.23
2018-08-11T11:44:34.944Z,2.77
2018-08-11T11:49:39.772Z,0.90
2018-08-11T11:54:43.963Z,2.20
2018-08-11T11:59:52.139Z,0.60
2018-08-11T12:04:57.718Z,0.70
2018-08-11T12:10:08.352Z,5.50
2018-08-11T12:15:14.735Z,0.70
2018-08-11T12:20:21.509Z,3.35
2018-08-11T12:25:31.176Z,1.67
2018-08-11T12:30:35.422Z,1.33
2018-08-11T12:35:44.598Z,1.00
2018-08-11T12:40:50.817Z,1.37
2018-08-11T12:45:57.938Z,0.67
2018-08-11T12:51:01.945Z,0.67
2018-08-11T12:56:09.499Z,1.30
2018-08-11T13:01:16.007Z,0.83
2018-08-11T13:06:27.824Z,0.88
2018-08-11T13:11:39.082Z,0.70
2018-08-11T13:16:48.030Z,1.07
2018-08-11T13:21:58.870Z,0.70
2018-08-11T13:27:04.311Z,0.80
2018-08-11T13:32:10.505Z,0.70
2018-08-11T13:37:15.356Z,1.30
2018-08-11T13:42:19.791Z,0.60
2018-08-11T13:47:25.358Z,0.60
2018-08-11T13:52:29.705Z,0.50
2018-08-11T13:57:35.409Z,2.07
2018-08-11T14:02:40.791Z,3.07
2018-08-11T14:07:44.942Z,0.90
2018-08-11T14:12:52.982Z,1.37
2018-08-11T14:17:56.609Z,0.60
2018-08-11T14:23:00.917Z,1.93
2018-08-11T14:28:09.367Z,0.70
2018-08-11T14:33:12.998Z,0.78
2018-08-11T14:38:18.191Z,0.90
2018-08-11T14:43:21.831Z,0.53
2018-08-11T14:48:26.010Z,1.93
2018-08-11T14:53:31.595Z,0.70
2018-08-11T14:58:35.263Z,1.30
2018-08-11T15:03:39.693Z,0.53
2018-08-11T15:08:46.656Z,0.80
2018-08-11T15:13:50.454Z,0.70
2018-08-11T15:18:54.840Z,1.15
2018-08-11T15:24:00.784Z,1.33
2018-08-11T15:29:05.536Z,0.90
2018-08-11T15:34:10.029Z,1.10
2018-08-11T15:39:14.333Z,0.60
2018-08-11T15:44:19.032Z,0.95
2018-08-11T15:49:23.226Z,0.60
2018-08-11T15:54:29.847Z,0.97
2018-08-11T15:59:34.565Z,1.00
2018-08-11T16:04:40.050Z,0.80
2018-08-11T16:09:44.735Z,1.17
2018-08-11T16:14:54.308Z,0.70
2018-08-11T16:19:59.613Z,1.60
2018-08-11T16:25:15.852Z,1.33
2018-08-11T16:30:22.504Z,0.65
2018-08-11T16:35:28.776Z,0.80
2018-08-11T16:40:33.543Z,2.30
2018-08-11T16:45:39.115Z,2.00
2018-08-11T16:56:50.780Z,0.57
2018-08-11T17:01:53.965Z,0.60
2018-08-11T17:06:57.212Z,0.60
2018-08-11T17:12:00.360Z,1.90
2018-08-11T17:17:03.528Z,1.03
2018-08-11T17:22:06.741Z,0.80
2018-08-11T17:27:09.999Z,1.17
2018-08-11T17:32:13.093Z,0.70
2018-08-11T17:37:16.270Z,3.77
2018-08-11T17:42:19.493Z,1.47
2018-08-11T17:47:22.649Z,0.98
2018-08-11T17:52:25.848Z,1.57
2018-08-11T17:57:29.090Z,1.17
2018-08-11T18:02:32.224Z,1.00
2018-08-11T18:07:35.376Z,1.63
2018-08-11T18:12:38.542Z,2.13
2018-08-11T18:17:41.709Z,1.00
2018-08-11T18:22:45.058Z,3.87
2018-08-11T18:27:48.394Z,3.77
2018-08-11T18:32:51.774Z,3.50
2018-08-11T18:37:55.483Z,2.60
2018-08-11T18:42:59.199Z,3.90
2018-08-11T18:48:03.049Z,1.97
2018-08-11T18:53:06.947Z,2.30
2018-08-11T18:58:10.622Z,1.35
2018-08-11T19:03:14.731Z,0.70
2018-08-11T19:08:19.328Z,1.05
2018-08-11T19:13:24.699Z,1.30
2018-08-11T19:18:32.884Z,1.00
2018-08-11T19:23:38.887Z,1.00
2018-08-11T19:28:50.803Z,1.57
2018-08-11T19:33:57.315Z,1.07
2018-08-11T19:39:05.126Z,1.90
2018-08-11T19:44:09.761Z,5.23
2018-08-11T19:49:14.757Z,1.00
2018-08-11T19:54:19.615Z,1.40
2018-08-11T19:59:23.806Z,1.10
2018-08-11T20:04:32.145Z,0.87
2018-08-11T20:09:36.835Z,1.13
2018-08-11T20:14:42.022Z,0.80
2018-08-11T20:19:46.261Z,1.03
2018-08-11T20:24:54.384Z,2.13
2018-08-11T20:30:01.234Z,2.00
2018-08-11T20:35:06.047Z,1.37
2018-08-11T20:40:11.784Z,1.43
2018-08-11T20:45:16.787Z,2.70
2018-08-11T20:50:23.900Z,2.45
2018-08-11T20:55:29.050Z,5.97
2018-08-11T21:00:34.417Z,1.10
2018-08-11T21:05:40.036Z,1.67
2018-08-11T21:10:51.587Z,2.07
2018-08-11T21:15:56.971Z,1.67
2018-08-11T21:21:02.585Z,1.30
2018-08-11T21:26:14.912Z,1.77
2018-08-11T21:31:21.600Z,1.27
2018-08-11T21:36:27.723Z,1.93
2018-08-11T21:41:34.449Z,5.03
2018-08-11T21:46:41.169Z,9.40
2018-08-11T21:51:51.715Z,1.67
2018-08-11T21:56:58.961Z,1.60
2018-08-11T22:02:05.011Z,2.27
2018-08-11T22:07:19.900Z,1.90
2018-08-11T22:12:31.394Z,2.60
2018-08-11T22:17:40.934Z,3.13
2018-08-11T22:22:49.210Z,3.00
2018-08-11T22:27:56.897Z,2.10
2018-08-11T22:33:03.438Z,2.03
2018-08-11T22:38:09.097Z,1.90
2018-08-11T22:43:15.514Z,2.40
2018-08-11T22:48:33.999Z,3.98
2018-08-11T22:53:40.014Z,2.10
2018-08-11T22:58:47.288Z,2.60
2018-08-11T23:03:57.520Z,6.50
2018-08-11T23:09:03.048Z,2.67
2018-08-11T23:14:07.910Z,2.77
2018-08-11T23:19:14.701Z,1.90
2018-08-11T23:24:20.082Z,2.08
2018-08-11T23:29:27.254Z,2.10
2018-08-11T23:34:35.756Z,1.93
2018-08-11T23:39:47.164Z,1.47
2018-08-11T23:44:53.281Z,1.83
2018-08-11T23:50:01.183Z,1.53
2018-08-11T23:55:13.527Z,1.50
